Time;durP1;ratioP1;P1;durP2;ratioP2;P2;SDS_P1;SDS_P2;PMS_P1;PMS_P2;Temp;Humidity;BMP_temperature;BMP_pressure;BME280_temperature;BME280_humidity;BME280_pressure;Samples;Min_cycle;Max_cycle;Signal;HPM_P1;HPM_P2
2024/01/16 00:05:04;;;;;;;0.00;0.00;;;;;;;0.64;76.52;99573.16;15791562;28;19955;-50
2024/01/16 00:12:43;;;;;;;0.00;0.00;;;;;;;0.66;75.64;99587.00;15790683;28;20044;-49
2024/01/16 00:20:17;;;;;;;18.95;0.93;;;;;;;0.06;77.23;99555.97;15791489;28;20605;-48
2024/01/16 00:27:52;;;;;;;0.00;0.00;;;;;;;0.24;78.42;99600.59;15787180;22;20068;-49
2024/01/16 00:35:26;;;;;;;0.00;0.00;;;;;;;0.60;77.58;99595.63;15663230;28;20037;-53
2024/01/16 00:43:00;;;;;;;0.00;0.00;;;;;;;-0.28;79.82;99594.00;15666052;28;20037;-52
2024/01/16 00:50:34;;;;;;;0.00;0.00;;;;;;;0.36;77.81;99587.84;15674898;28;20049;-52
2024/01/16 00:58:09;;;;;;;0.00;0.00;;;;;;;0.02;78.72;99588.16;15680543;28;20060;-53
2024/01/16 01:05:44;;;;;;;1.33;1.17;;;;;;;-0.28;79.57;99587.88;15692587;28;20493;-48
2024/01/16 01:13:19;;;;;;;0.00;0.00;;;;;;;-0.32;80.56;99591.88;15659674;28;20032;-51
2024/01/16 01:20:55;;;;;;;0.00;0.00;;;;;;;0.07;79.51;99612.19;15690793;28;20053;-48
2024/01/16 01:28:30;;;;;;;0.00;0.00;;;;;;;-1.11;84.30;99636.34;15689513;28;20045;-49
2024/01/16 01:36:04;;;;;;;0.00;0.00;;;;;;;-1.34;85.35;99659.84;15688439;28;20043;-54
2024/01/16 01:43:40;;;;;;;0.00;0.00;;;;;;;-1.24;85.27;99678.13;15667239;28;20497;-49
2024/01/16 01:51:14;;;;;;;0.00;0.00;;;;;;;-1.52;84.58;99668.81;15686648;28;20044;-48
2024/01/16 01:58:53;;;;;;;0.00;0.00;;;;;;;-1.47;83.56;99693.66;15684494;28;20044;-49
2024/01/16 02:06:28;;;;;;;0.00;0.00;;;;;;;-1.74;82.58;99720.19;15674700;28;20044;-54
2024/01/16 02:14:05;;;;;;;0.00;0.00;;;;;;;-1.96;83.16;99740.78;15691721;28;20048;-51
2024/01/16 02:21:42;;;;;;;0.43;0.35;;;;;;;-1.37;80.62;99740.91;15695962;28;20552;-50
2024/01/16 02:29:17;;;;;;;0.03;0.03;;;;;;;-0.52;77.97;99754.81;15700196;28;20048;-53
2024/01/16 02:36:50;;;;;;;0.22;0.22;;;;;;;-0.57;77.27;99763.22;15682378;28;20040;-51
2024/01/16 02:44:26;;;;;;;0.00;0.00;;;;;;;-0.58;76.08;99781.81;15695961;28;20124;-50
2024/01/16 02:52:00;;;;;;;0.00;0.00;;;;;;;-0.58;77.66;99790.56;15669278;28;20044;-53
2024/01/16 02:59:34;;;;;;;0.10;0.10;;;;;;;-0.52;77.53;99802.25;15699997;28;20526;-50
2024/01/16 03:07:08;;;;;;;0.25;0.25;;;;;;;-1.68;81.44;99817.72;15685792;28;20477;-50
2024/01/16 03:14:48;;;;;;;0.00;0.00;;;;;;;-1.38;81.05;99853.28;15666235;28;20646;-50
2024/01/16 03:22:22;;;;;;;0.00;0.00;;;;;;;-0.51;77.89;99851.38;15683706;28;20084;-49
2024/01/16 03:29:57;;;;;;;0.00;0.00;;;;;;;-0.66;77.56;99866.94;15684847;28;20516;-46
2024/01/16 03:37:31;;;;;;;0.00;0.00;;;;;;;-0.38;76.27;99864.91;15682099;28;20049;-53
2024/01/16 03:45:09;;;;;;;0.00;0.00;;;;;;;-0.92;78.56;99882.00;15672435;28;20107;-48
2024/01/16 03:52:44;;;;;;;0.00;0.00;;;;;;;-1.04;80.29;99892.78;15674942;28;20043;-48
2024/01/16 04:00:18;;;;;;;0.00;0.00;;;;;;;-0.63;78.18;99893.00;15683986;28;20055;-48
2024/01/16 04:07:58;;;;;;;0.00;0.00;;;;;;;-1.21;79.78;99898.13;15687740;28;20477;-52
2024/01/16 04:15:34;;;;;;;0.00;0.00;;;;;;;-0.90;79.82;99901.94;15685589;28;20048;-52
2024/01/16 04:23:11;;;;;;;0.00;0.00;;;;;;;-1.80;82.29;99911.84;15690812;28;20078;-52
2024/01/16 04:30:48;;;;;;;0.00;0.00;;;;;;;-1.45;82.26;99914.56;15674469;28;20136;-48
2024/01/16 04:38:21;;;;;;;0.00;0.00;;;;;;;-1.05;79.78;99914.03;15678628;28;20037;-51
2024/01/16 04:45:56;;;;;;;0.00;0.00;;;;;;;-1.12;79.40;99910.34;15691131;28;20567;-48
2024/01/16 04:53:29;;;;;;;0.00;0.00;;;;;;;-1.72;80.60;99929.50;15691709;28;20153;-47
2024/01/16 05:01:05;;;;;;;0.00;0.00;;;;;;;-1.54;80.12;99934.72;15663368;28;20147;-49
2024/01/16 05:08:41;;;;;;;0.00;0.00;;;;;;;-1.52;81.05;99934.59;15680281;28;20477;-48
2024/01/16 05:16:16;;;;;;;0.00;0.00;;;;;;;-1.48;79.72;99944.66;15685636;28;20032;-51
2024/01/16 05:23:50;;;;;;;0.00;0.00;;;;;;;-1.34;79.93;99935.41;15670894;28;20041;-49
2024/01/16 05:31:26;;;;;;;0.00;0.00;;;;;;;-1.50;79.89;99945.78;15679427;28;20144;-52
2024/01/16 05:39:01;;;;;;;0.00;0.00;;;;;;;-1.95;79.54;99954.59;15674465;28;20047;-47
2024/01/16 05:46:38;;;;;;;0.00;0.00;;;;;;;-1.61;78.56;99960.00;15696721;28;20132;-46
2024/01/16 05:54:12;;;;;;;0.00;0.00;;;;;;;-1.89;77.53;99969.78;15698430;28;20067;-49
2024/01/16 06:01:49;;;;;;;0.00;0.00;;;;;;;-2.00;77.78;99985.78;15671985;28;20556;-47
2024/01/16 06:09:22;;;;;;;0.00;0.00;;;;;;;-1.69;76.45;100002.03;15670405;28;20140;-52
2024/01/16 06:16:57;;;;;;;0.00;0.00;;;;;;;-1.76;76.75;100019.41;15687685;28;20083;-48
2024/01/16 06:24:36;;;;;;;0.00;0.00;;;;;;;-2.08;76.04;100025.94;15657863;28;20059;-48
2024/01/16 06:32:11;;;;;;;0.10;0.10;;;;;;;-2.16;76.06;100031.91;15727575;22;20123;-50
2024/01/16 06:39:45;;;;;;;0.00;0.00;;;;;;;-1.93;75.23;100036.78;15753405;28;20044;-52
2024/01/16 06:47:20;;;;;;;0.10;0.10;;;;;;;-2.54;76.46;100053.94;15790559;28;20086;-48
2024/01/16 06:54:54;;;;;;;0.15;0.15;;;;;;;-2.24;78.38;100055.47;15781808;28;20048;-49
2024/01/16 07:02:28;;;;;;;0.00;0.00;;;;;;;-1.85;76.71;100069.28;15775025;28;20709;-48
2024/01/16 07:10:02;;;;;;;0.00;0.00;;;;;;;-2.64;80.29;100088.09;15799828;28;20564;-49
2024/01/16 07:17:37;;;;;;;0.00;0.00;;;;;;;-2.06;81.82;100073.94;15802402;28;20101;-50
2024/01/16 07:25:11;;;;;;;0.00;0.00;;;;;;;-2.15;82.19;100064.28;15802811;28;20055;-48
2024/01/16 07:32:46;;;;;;;0.00;0.00;;;;;;;-1.55;80.96;100089.16;15787837;28;20052;-49
2024/01/16 07:40:23;;;;;;;0.52;0.52;;;;;;;-1.41;81.83;100103.63;15797326;28;20040;-49
2024/01/16 07:47:58;;;;;;;0.00;0.00;;;;;;;-1.23;81.45;100114.19;15801570;28;20465;-47
2024/01/16 07:55:31;;;;;;;0.08;0.08;;;;;;;-1.51;81.79;100117.81;15801848;28;20131;-51
2024/01/16 08:03:11;;;;;;;0.20;0.20;;;;;;;-1.13;81.28;100116.75;15777942;28;20041;-50
2024/01/16 08:10:44;;;;;;;0.05;0.05;;;;;;;-0.99;79.50;100129.38;15802183;28;20075;-49
2024/01/16 08:18:18;;;;;;;0.15;0.15;;;;;;;-0.61;79.70;100130.84;15800916;28;20040;-52
2024/01/16 08:25:53;;;;;;;0.15;0.15;;;;;;;0.06;76.40;100148.78;15795891;28;20079;-49
2024/01/16 08:33:28;;;;;;;;;;;;;;;0.25;76.15;100146.72;15798660;28;20051;-49
2024/01/16 08:41:01;;;;;;;0.05;0.05;;;;;;;-0.43;78.24;100144.00;15773915;28;19930;-49
2024/01/16 08:48:36;;;;;;;0.00;0.00;;;;;;;-0.17;78.64;100143.19;15791641;28;20051;-49
2024/01/16 08:56:09;;;;;;;0.00;0.00;;;;;;;0.73;76.66;100152.34;15793146;28;20044;-50
2024/01/16 09:03:46;;;;;;;0.00;0.00;;;;;;;0.09;76.51;100165.09;15785509;28;20135;-50
2024/01/16 09:11:19;;;;;;;0.08;0.08;;;;;;;0.57;77.16;100161.03;15787356;28;20452;-51
2024/01/16 09:18:54;;;;;;;0.00;0.00;;;;;;;0.66;76.98;100170.66;15797584;28;20078;-49
2024/01/16 09:26:31;;;;;;;0.00;0.00;;;;;;;0.98;75.74;100169.91;15797884;28;20146;-52
2024/01/16 09:34:09;;;;;;;0.00;0.00;;;;;;;0.02;77.35;100187.81;15797294;28;20047;-50
2024/01/16 09:41:43;;;;;;;0.00;0.00;;;;;;;0.36;78.58;100181.72;15773984;28;20412;-49
2024/01/16 09:49:18;;;;;;;0.00;0.00;;;;;;;0.51;79.25;100169.59;15795526;28;20051;-51
2024/01/16 09:56:59;;;;;;;0.00;0.00;;;;;;;-0.06;81.02;100167.50;15797035;28;20072;-48
2024/01/16 10:04:33;;;;;;;0.00;0.00;;;;;;;0.56;77.18;100183.16;15788773;28;20071;-48
2024/01/16 10:12:10;;;;;;;0.00;0.00;;;;;;;0.65;77.50;100194.56;15792643;28;20047;-48
2024/01/16 10:19:51;;;;;;;0.20;0.20;;;;;;;1.18;75.13;100198.69;15791031;28;20068;-51
2024/01/16 10:27:30;;;;;;;0.00;0.00;;;;;;;1.36;74.67;100191.44;15799998;28;20501;-51
2024/01/16 10:35:10;;;;;;;0.10;0.10;;;;;;;1.06;73.84;100192.03;15785432;28;20056;-51
2024/01/16 10:42:44;;;;;;;0.10;0.10;;;;;;;0.75;74.27;100206.66;15796123;28;20143;-50
2024/01/16 10:50:18;;;;;;;0.00;0.00;;;;;;;1.06;74.37;100211.38;15787596;28;20078;-48
2024/01/16 10:57:52;;;;;;;0.03;0.03;;;;;;;0.91;74.46;100202.41;15805868;28;20040;-49
2024/01/16 11:05:30;;;;;;;0.00;0.00;;;;;;;0.94;74.53;100191.53;15799033;28;20056;-48
2024/01/16 11:13:05;;;;;;;0.10;0.10;;;;;;;1.04;74.52;100189.56;15804086;28;20044;-48
2024/01/16 11:20:42;;;;;;;0.00;0.00;;;;;;;0.83;74.62;100184.72;15804140;28;20037;-50
2024/01/16 11:28:19;;;;;;;0.10;0.10;;;;;;;0.63;76.38;100193.91;15803908;28;20120;-50
2024/01/16 11:35:53;;;;;;;0.35;0.35;;;;;;;1.25;73.75;100182.00;15782604;28;20067;-48
2024/01/16 11:43:37;;;;;;;0.00;0.00;;;;;;;1.13;74.45;100178.03;15799892;28;20398;-48
2024/01/16 11:51:26;;;;;;;0.00;0.00;;;;;;;0.94;74.94;100184.44;15781842;28;20113;-46
2024/01/16 11:59:14;;;;;;;0.00;0.00;;;;;;;0.82;75.54;100175.13;15780534;28;20036;-48
2024/01/16 12:06:59;;;;;;;0.00;0.00;;;;;;;1.68;72.57;100171.25;15790447;28;20471;-50
2024/01/16 12:14:33;;;;;;;0.00;0.00;;;;;;;1.58;73.13;100167.97;15799837;28;20047;-49
2024/01/16 12:22:09;;;;;;;0.00;0.00;;;;;;;1.66;73.61;100160.84;15798532;28;20527;-47
2024/01/16 12:29:43;;;;;;;0.50;0.40;;;;;;;1.57;73.57;100143.31;15800758;28;20047;-45
2024/01/16 12:37:19;;;;;;;0.10;0.10;;;;;;;1.45;73.16;100142.84;15794174;28;20464;-46
2024/01/16 12:44:54;;;;;;;0.00;0.00;;;;;;;1.26;73.63;100127.31;15798721;28;20101;-45
2024/01/16 12:52:29;;;;;;;0.00;0.00;;;;;;;1.47;73.27;100127.63;15799329;28;20496;-47
2024/01/16 13:00:22;;;;;;;0.10;0.10;;;;;;;1.21;74.89;100130.47;15798924;28;20075;-52
2024/01/16 13:08:04;;;;;;;0.00;0.00;;;;;;;1.06;73.90;100137.38;15786802;28;20101;-48
2024/01/16 13:15:38;;;;;;;0.00;0.00;;;;;;;0.41;75.89;100139.84;15796805;28;20071;-48
2024/01/16 13:23:13;;;;;;;0.30;0.30;;;;;;;1.21;74.34;100122.53;15797444;28;20769;-47
2024/01/16 13:30:48;;;;;;;0.35;0.17;;;;;;;0.81;75.80;100128.59;15797284;28;20048;-49
2024/01/16 13:38:22;;;;;;;0.00;0.00;;;;;;;0.88;74.82;100136.69;15788593;28;20122;-48
2024/01/16 13:45:56;;;;;;;0.00;0.00;;;;;;;1.00;75.27;100138.84;15783315;28;20119;-45
2024/01/16 13:53:30;;;;;;;;;;;;;;;0.96;75.06;100120.84;15785776;28;20048;-47
2024/01/16 14:01:04;;;;;;;0.00;0.00;;;;;;;0.82;74.61;100122.31;15802515;28;19960;-46
2024/01/16 14:08:40;;;;;;;0.00;0.00;;;;;;;0.54;74.83;100124.38;15786299;28;20047;-47
2024/01/16 14:16:15;;;;;;;0.00;0.00;;;;;;;0.63;75.79;100112.84;15799130;28;20043;-48
2024/01/16 14:23:51;;;;;;;0.00;0.00;;;;;;;0.67;75.35;100118.66;15808612;28;20055;-46
2024/01/16 14:31:26;;;;;;;0.00;0.00;;;;;;;0.29;79.22;100136.69;15788998;28;20631;-47
2024/01/16 14:39:01;;;;;;;0.00;0.00;;;;;;;0.48;77.94;100125.84;15789408;28;20515;-49
2024/01/16 14:46:37;;;;;;;0.00;0.00;;;;;;;0.74;77.00;100127.56;15806037;28;20424;-46
2024/01/16 14:54:12;;;;;;;;;;;;;;;0.51;78.70;100129.97;15802122;28;20040;-47
2024/01/16 15:01:45;;;;;;;0.00;0.00;;;;;;;0.44;78.34;100127.16;15759991;28;19926;-48
2024/01/16 15:09:20;;;;;;;0.00;0.00;;;;;;;0.45;78.69;100127.97;15799442;28;20040;-51
2024/01/16 15:16:54;;;;;;;0.00;0.00;;;;;;;0.55;77.68;100133.94;15798373;28;20043;-43
2024/01/16 15:24:29;;;;;;;0.00;0.00;;;;;;;0.27;78.73;100133.34;15801083;28;20662;-49
2024/01/16 15:32:04;;;;;;;0.00;0.00;;;;;;;0.15;80.48;100134.63;15804957;28;20063;-47
2024/01/16 15:39:40;;;;;;;1.42;1.35;;;;;;;0.48;78.92;100135.59;15793413;28;20040;-51
2024/01/16 15:47:15;;;;;;;0.00;0.00;;;;;;;0.61;78.18;100143.06;15793741;28;20056;-47
2024/01/16 15:54:50;;;;;;;0.10;0.10;;;;;;;0.33;79.36;100151.22;15795538;28;20048;-45
2024/01/16 16:02:24;;;;;;;0.10;0.10;;;;;;;0.38;78.57;100154.22;15796663;28;20037;-50
2024/01/16 16:09:59;;;;;;;0.22;0.22;;;;;;;0.28;78.68;100150.88;15794467;28;20044;-46
2024/01/16 16:17:33;;;;;;;4.03;1.30;;;;;;;0.53;77.24;100154.44;15786779;28;20047;-48
2024/01/16 16:25:09;;;;;;;0.10;0.10;;;;;;;0.44;77.22;100172.03;15785618;28;20119;-49
2024/01/16 16:32:44;;;;;;;0.00;0.00;;;;;;;0.44;76.83;100166.75;15786773;28;20488;-52
2024/01/16 16:40:20;;;;;;;0.00;0.00;;;;;;;0.46;76.65;100172.69;15769490;28;20048;-48
2024/01/16 16:47:53;;;;;;;0.20;0.20;;;;;;;0.44;75.63;100179.13;15793258;28;20044;-47
2024/01/16 16:55:28;;;;;;;;;;;;;;;0.86;73.96;100178.28;15796271;28;20032;-47
2024/01/16 17:03:03;;;;;;;0.00;0.00;;;;;;;0.82;73.67;100185.72;15792104;28;19920;-45
2024/01/16 17:10:39;;;;;;;0.05;0.05;;;;;;;0.74;74.56;100194.44;15793197;28;20507;-47
2024/01/16 17:18:12;;;;;;;0.25;0.22;;;;;;;0.30;75.56;100151.53;15779652;28;20032;-45
2024/01/16 17:25:48;;;;;;;1.38;1.27;;;;;;;0.48;76.65;100186.59;15784095;28;20036;-49
2024/01/16 17:33:22;;;;;;;0.60;0.60;;;;;;;0.40;76.04;100183.91;15791729;28;20048;-45
2024/01/16 17:40:59;;;;;;;0.00;0.00;;;;;;;0.17;75.46;100178.34;15793234;28;20470;-50
2024/01/16 17:48:33;;;;;;;1.42;0.65;;;;;;;0.20;75.29;100193.88;15781422;28;20466;-49
2024/01/16 17:56:12;;;;;;;0.03;0.03;;;;;;;0.50;74.60;100196.97;15782342;28;20441;-48
2024/01/16 18:03:46;;;;;;;0.10;0.10;;;;;;;0.36;75.12;100193.13;15793718;28;20112;-48
2024/01/16 18:11:21;;;;;;;0.00;0.00;;;;;;;0.06;74.27;100191.81;15786155;28;20044;-47
2024/01/16 18:18:55;;;;;;;0.10;0.10;;;;;;;0.32;75.16;100199.69;15783647;28;20097;-49
2024/01/16 18:26:30;;;;;;;1.25;1.15;;;;;;;0.32;74.90;100207.63;15778462;28;20051;-52
2024/01/16 18:34:03;;;;;;;0.00;0.00;;;;;;;0.11;75.51;100209.81;15793945;22;20055;-72
2024/01/16 18:41:38;;;;;;;0.00;0.00;;;;;;;0.01;74.14;100183.53;15789118;28;20111;-71
2024/01/16 18:49:13;;;;;;;0.00;0.00;;;;;;;-0.04;74.53;100223.56;15793461;28;20131;-74
2024/01/16 18:56:48;;;;;;;0.00;0.00;;;;;;;0.24;75.34;100232.16;15803577;28;20055;-72
2024/01/16 19:04:23;;;;;;;0.13;0.13;;;;;;;0.09;74.15;100223.16;15796159;28;20071;-69
2024/01/16 19:11:58;;;;;;;0.00;0.00;;;;;;;0.19;74.47;100223.91;15800832;28;20036;-73
2024/01/16 19:19:32;;;;;;;0.10;0.10;;;;;;;-0.34;75.29;100224.00;15802986;28;20505;-73
2024/01/16 19:27:06;;;;;;;0.10;0.10;;;;;;;-0.04;74.45;100228.84;15801971;28;20122;-73
2024/01/16 19:34:40;;;;;;;0.00;0.00;;;;;;;-0.14;75.42;100224.63;15801291;28;20299;-72
2024/01/16 19:42:14;;;;;;;0.00;0.00;;;;;;;-0.46;75.55;100219.97;15787505;28;20048;-73
2024/01/16 19:49:48;;;;;;;0.00;0.00;;;;;;;0.05;74.29;100224.47;15797961;28;20043;-72
2024/01/16 19:57:24;;;;;;;0.00;0.00;;;;;;;0.07;73.77;100232.22;15798888;28;20044;-71
2024/01/16 20:04:57;;;;;;;0.00;0.00;;;;;;;-0.66;75.67;100235.06;15780574;28;20130;-73
2024/01/16 20:12:32;;;;;;;;;;;;;;;-0.61;75.79;100236.28;15798914;28;20105;-71
2024/01/16 20:20:09;;;;;;;0.00;0.00;;;;;;;-0.40;76.22;100229.88;15784762;28;19968;-70
2024/01/16 20:27:44;;;;;;;0.10;0.10;;;;;;;-0.34;75.82;100189.72;15735204;28;20045;-74
2024/01/16 20:35:19;;;;;;;0.10;0.10;;;;;;;-0.05;74.39;100219.28;15794512;28;20112;-71
2024/01/16 20:42:54;;;;;;;0.10;0.10;;;;;;;0.19;73.58;100215.97;15785819;28;20126;-72
2024/01/16 20:50:27;;;;;;;0.00;0.00;;;;;;;0.06;73.72;100214.72;15795227;28;20097;-72
2024/01/16 20:58:04;;;;;;;0.52;0.52;;;;;;;-0.23;75.81;100215.84;15780662;28;20143;-71
2024/01/16 21:05:37;;;;;;;0.10;0.10;;;;;;;0.17;73.43;100202.09;15795546;28;20071;-72
2024/01/16 21:13:14;;;;;;;0.38;0.38;;;;;;;0.20;73.52;100199.16;15795816;28;20080;-71
2024/01/16 21:20:49;;;;;;;0.10;0.10;;;;;;;-0.41;74.87;100192.16;15771478;28;20518;-71
2024/01/16 21:28:23;;;;;;;0.17;0.17;;;;;;;-0.13;73.20;100205.22;15794257;28;20043;-72
2024/01/16 21:35:57;;;;;;;0.00;0.00;;;;;;;-0.03;73.16;100185.66;15791280;28;20044;-72
2024/01/16 21:43:33;;;;;;;0.95;0.45;;;;;;;0.07;73.27;100182.09;15774642;28;20434;-73
2024/01/16 21:51:07;;;;;;;5.32;1.05;;;;;;;0.20;72.85;100177.22;15775494;28;20032;-74
2024/01/16 21:58:43;;;;;;;0.00;0.00;;;;;;;0.20;73.88;100164.03;15752661;28;20047;-72
2024/01/16 22:06:21;;;;;;;0.28;0.28;;;;;;;0.09;73.07;100162.47;15794687;28;20040;-72
2024/01/16 22:13:56;;;;;;;0.17;0.17;;;;;;;-0.38;74.73;100157.53;15779645;22;20048;-47
2024/01/16 22:21:34;;;;;;;0.10;0.10;;;;;;;-0.57;74.42;100166.47;15730394;28;20032;-52
2024/01/16 22:29:09;;;;;;;0.00;0.00;;;;;;;-0.61;74.77;100161.66;15741617;28;20110;-50
2024/01/16 22:36:42;;;;;;;0.85;0.85;;;;;;;-0.93;76.11;100154.28;15739657;28;20153;-52
2024/01/16 22:44:19;;;;;;;0.05;0.05;;;;;;;-1.01;75.81;100146.31;15730831;28;20041;-49
2024/01/16 22:51:53;;;;;;;0.00;0.00;;;;;;;-1.28;77.60;100121.69;15714350;28;20052;-48
2024/01/16 22:59:31;;;;;;;0.10;0.10;;;;;;;-1.50;77.45;100101.88;15742139;28;20049;-49
2024/01/16 23:07:06;;;;;;;0.00;0.00;;;;;;;-1.25;76.21;100100.34;15719798;28;20043;-49
2024/01/16 23:14:44;;;;;;;0.00;0.00;;;;;;;-1.62;77.80;100092.56;15736468;28;20045;-52
2024/01/16 23:22:37;;;;;;;0.00;0.00;;;;;;;-2.00;78.73;100085.69;15736844;28;20056;-50
2024/01/16 23:30:30;;;;;;;0.00;0.00;;;;;;;-2.32;80.02;100071.16;15729027;28;20051;-49
2024/01/16 23:38:05;;;;;;;0.20;0.20;;;;;;;-1.84;77.93;100064.84;15735326;28;20473;-52
2024/01/16 23:45:40;;;;;;;0.10;0.10;;;;;;;-2.03;78.77;100057.06;15729813;28;20051;-52
2024/01/16 23:53:13;;;;;;;0.03;0.03;;;;;;;-2.21;78.68;100044.66;15697954;28;20105;-50
